createdAt,value
2023-04-29T00:02:05.645Z,0
2023-04-29T00:04:31.740Z,0
2023-04-29T00:06:56.890Z,0
2023-04-29T00:09:22.987Z,0
2023-04-29T00:11:49.080Z,0
2023-04-29T00:14:15.127Z,0
2023-04-29T00:16:41.225Z,0
2023-04-29T00:19:07.324Z,0
2023-04-29T00:21:33.415Z,0
2023-04-29T00:23:59.521Z,0
2023-04-29T00:26:25.620Z,0
2023-04-29T00:28:51.710Z,0
2023-04-29T00:31:17.817Z,0
2023-04-29T00:33:43.891Z,0
2023-04-29T00:36:10.000Z,0
2023-04-29T00:38:35.101Z,0
2023-04-29T00:41:01.199Z,0
2023-04-29T00:43:27.296Z,0
2023-04-29T00:45:53.385Z,0
2023-04-29T00:48:19.477Z,0
2023-04-29T00:50:45.604Z,0
2023-04-29T00:53:11.858Z,0
2023-04-29T00:55:37.817Z,0
2023-04-29T00:58:03.922Z,0
2023-04-29T01:00:29.986Z,0
2023-04-29T01:02:56.230Z,0
2023-04-29T01:05:22.196Z,0
2023-04-29T01:07:48.275Z,0
2023-04-29T01:10:13.424Z,0
2023-04-29T01:12:39.505Z,0
2023-04-29T01:15:05.574Z,0
2023-04-29T01:17:31.669Z,0
2023-04-29T01:19:57.735Z,0
2023-04-29T01:22:23.846Z,0
2023-04-29T01:24:49.934Z,0
2023-04-29T01:27:16.051Z,0
2023-04-29T01:29:42.122Z,0
2023-04-29T01:32:08.228Z,0
2023-04-29T01:34:34.317Z,0
2023-04-29T01:37:00.425Z,0
2023-04-29T01:39:26.504Z,0
2023-04-29T01:41:51.626Z,0
2023-04-29T01:44:17.731Z,0
2023-04-29T01:46:43.801Z,0
2023-04-29T01:49:09.924Z,0
2023-04-29T01:51:36.002Z,0
2023-04-29T01:54:02.103Z,0
2023-04-29T01:56:28.200Z,0
2023-04-29T01:58:54.293Z,0
2023-04-29T02:01:20.391Z,0
2023-04-29T02:03:46.497Z,0
2023-04-29T02:06:12.574Z,0
2023-04-29T02:08:38.702Z,0
2023-04-29T02:11:04.771Z,0
2023-04-29T02:13:29.895Z,0
2023-04-29T02:15:55.981Z,0
2023-04-29T02:18:22.087Z,0
2023-04-29T02:20:48.174Z,0
2023-04-29T02:23:14.268Z,0
2023-04-29T02:25:40.366Z,0
2023-04-29T02:28:06.467Z,0
2023-04-29T02:30:32.561Z,0
2023-04-29T02:32:58.664Z,0
2023-04-29T02:35:24.812Z,0
2023-04-29T02:37:50.886Z,0
2023-04-29T02:40:16.985Z,0
2023-04-29T02:42:43.091Z,0
2023-04-29T02:45:08.157Z,0
2023-04-29T02:47:34.236Z,0
2023-04-29T02:50:00.346Z,0
2023-04-29T02:52:26.456Z,0
2023-04-29T02:54:52.524Z,0
2023-04-29T02:57:18.639Z,0
2023-04-29T02:59:44.729Z,0
2023-04-29T03:02:10.832Z,0
2023-04-29T03:04:36.932Z,0
2023-04-29T03:07:03.043Z,0
2023-04-29T03:09:29.126Z,0
2023-04-29T03:11:55.227Z,0
2023-04-29T03:14:21.319Z,0
2023-04-29T03:16:46.418Z,0
2023-04-29T03:21:38.603Z,0
2023-04-29T03:24:04.705Z,0
2023-04-29T03:26:30.812Z,0
2023-04-29T03:28:56.901Z,0
2023-04-29T03:31:22.985Z,0
2023-04-29T03:33:49.075Z,0
2023-04-29T03:36:15.184Z,0
2023-04-29T03:38:41.477Z,0
2023-04-29T03:41:07.399Z,0
2023-04-29T03:43:33.454Z,0
2023-04-29T03:48:25.662Z,0
2023-04-29T03:50:50.776Z,0
2023-04-29T03:53:16.861Z,0
2023-04-29T03:55:42.954Z,0
2023-04-29T03:58:09.109Z,0
2023-04-29T04:00:35.173Z,0
2023-04-29T04:03:01.329Z,5
2023-04-29T04:05:27.383Z,5
2023-04-29T04:07:53.445Z,5
2023-04-29T04:10:19.532Z,5
2023-04-29T04:12:45.628Z,11
2023-04-29T04:15:11.778Z,11
2023-04-29T04:17:37.811Z,16
2023-04-29T04:20:03.934Z,16
2023-04-29T04:22:29.024Z,22
2023-04-29T04:24:55.164Z,22
2023-04-29T04:27:21.202Z,28
2023-04-29T04:29:47.319Z,28
2023-04-29T04:32:13.422Z,33
2023-04-29T04:34:39.652Z,33
2023-04-29T04:37:05.605Z,39
2023-04-29T04:39:31.712Z,39
2023-04-29T04:41:57.850Z,45
2023-04-29T04:44:23.887Z,50
2023-04-29T04:46:49.985Z,50
2023-04-29T04:49:16.087Z,56
2023-04-29T04:51:42.184Z,73
2023-04-29T04:54:07.286Z,73
2023-04-29T04:56:33.380Z,78
2023-04-29T04:58:59.499Z,84
2023-04-29T05:01:25.574Z,84
2023-04-29T05:03:51.676Z,84
2023-04-29T05:06:17.776Z,101
2023-04-29T05:08:43.879Z,95
2023-04-29T05:11:09.970Z,90
2023-04-29T05:13:36.056Z,73
2023-04-29T05:16:02.148Z,50
2023-04-29T05:18:28.246Z,50
2023-04-29T05:23:20.450Z,67
2023-04-29T05:25:45.547Z,61
2023-04-29T05:28:11.634Z,61
2023-04-29T05:30:37.754Z,61
2023-04-29T05:33:03.842Z,112
2023-04-29T05:35:29.929Z,101
2023-04-29T05:37:56.028Z,90
2023-04-29T05:40:22.131Z,90
2023-04-29T05:42:48.233Z,106
2023-04-29T05:45:14.302Z,106
2023-04-29T05:47:40.410Z,101
2023-04-29T05:50:06.523Z,129
2023-04-29T05:52:32.665Z,168
2023-04-29T05:54:58.690Z,135
2023-04-29T05:57:23.802Z,225
2023-04-29T05:59:50.021Z,163
2023-04-29T06:02:16.005Z,208
2023-04-29T06:04:42.109Z,185
2023-04-29T06:07:08.198Z,112
2023-04-29T06:09:34.288Z,174
2023-04-29T06:12:00.384Z,157
2023-04-29T06:14:26.487Z,191
2023-04-29T06:16:52.569Z,112
2023-04-29T06:19:18.688Z,123
2023-04-29T06:21:44.765Z,123
2023-04-29T06:24:10.873Z,123
2023-04-29T06:26:36.964Z,168
2023-04-29T06:29:02.065Z,191
2023-04-29T06:31:28.171Z,213
2023-04-29T06:33:54.333Z,225
2023-04-29T06:36:20.364Z,219
2023-04-29T06:38:46.459Z,208
2023-04-29T06:41:11.573Z,316
2023-04-29T06:43:37.667Z,276
2023-04-29T06:46:03.756Z,271
2023-04-29T06:48:29.861Z,202
2023-04-29T06:50:55.946Z,157
2023-04-29T06:53:22.047Z,202
2023-04-29T06:55:48.147Z,271
2023-04-29T06:58:14.244Z,332
2023-04-29T07:00:40.345Z,355
2023-04-29T07:03:06.424Z,293
2023-04-29T07:05:32.629Z,310
2023-04-29T07:07:58.680Z,253
2023-04-29T07:10:24.761Z,372
2023-04-29T07:12:49.834Z,383
2023-04-29T07:15:15.937Z,411
2023-04-29T07:17:42.025Z,299
2023-04-29T07:20:08.119Z,168
2023-04-29T07:22:34.277Z,157
2023-04-29T07:25:00.324Z,168
2023-04-29T07:27:26.434Z,230
2023-04-29T07:29:52.505Z,236
2023-04-29T07:32:18.609Z,282
2023-04-29T07:34:44.708Z,276
2023-04-29T07:37:10.792Z,230
2023-04-29T07:39:36.892Z,236
2023-04-29T07:42:02.998Z,304
2023-04-29T07:44:28.088Z,361
2023-04-29T07:46:54.199Z,372
2023-04-29T07:49:20.291Z,355
2023-04-29T07:51:46.377Z,366
2023-04-29T07:54:12.475Z,327
2023-04-29T07:56:38.580Z,287
2023-04-29T07:59:04.674Z,282
2023-04-29T08:01:30.769Z,299
2023-04-29T08:03:56.863Z,366
2023-04-29T08:06:22.963Z,366
2023-04-29T08:08:49.089Z,349
2023-04-29T08:11:15.140Z,349
2023-04-29T08:13:41.273Z,361
2023-04-29T08:16:06.345Z,366
2023-04-29T08:18:32.441Z,383
2023-04-29T08:20:58.545Z,389
2023-04-29T08:23:24.630Z,377
2023-04-29T08:25:50.732Z,355
2023-04-29T08:28:16.817Z,349
2023-04-29T08:30:42.915Z,344
2023-04-29T08:33:09.029Z,372
2023-04-29T08:35:35.099Z,400
2023-04-29T08:38:01.205Z,439
2023-04-29T08:40:27.280Z,467
2023-04-29T08:42:53.396Z,467
2023-04-29T08:45:19.501Z,445
2023-04-29T08:47:44.585Z,422
2023-04-29T08:50:10.696Z,411
2023-04-29T08:52:36.809Z,400
2023-04-29T08:55:02.957Z,406
2023-04-29T08:57:28.992Z,411
2023-04-29T08:59:55.064Z,406
2023-04-29T09:02:21.165Z,417
2023-04-29T09:04:47.349Z,439
2023-04-29T09:07:13.361Z,484
2023-04-29T09:09:39.443Z,530
2023-04-29T09:12:05.536Z,558
2023-04-29T09:14:31.641Z,547
2023-04-29T09:16:57.744Z,542
2023-04-29T09:19:22.846Z,564
2023-04-29T09:21:48.946Z,513
2023-04-29T09:24:15.047Z,456
2023-04-29T09:26:41.133Z,479
2023-04-29T09:29:07.222Z,592
2023-04-29T09:31:33.321Z,626
2023-04-29T09:33:59.480Z,581
2023-04-29T09:36:25.518Z,462
2023-04-29T09:38:51.624Z,598
2023-04-29T09:41:17.709Z,626
2023-04-29T09:43:43.801Z,626
2023-04-29T09:46:09.909Z,660
2023-04-29T09:48:36.006Z,643
2023-04-29T09:51:01.110Z,620
2023-04-29T09:53:27.224Z,581
2023-04-29T09:55:53.290Z,632
2023-04-29T09:58:19.400Z,705
2023-04-29T10:00:45.506Z,677
2023-04-29T10:03:11.602Z,654
2023-04-29T10:05:37.700Z,626
2023-04-29T10:08:03.829Z,710
2023-04-29T10:10:29.868Z,705
2023-04-29T10:12:55.979Z,654
2023-04-29T10:15:22.059Z,626
2023-04-29T10:17:48.137Z,632
2023-04-29T10:20:14.256Z,570
2023-04-29T10:22:39.427Z,592
2023-04-29T10:25:05.484Z,542
2023-04-29T10:27:31.570Z,513
2023-04-29T10:29:57.645Z,445
2023-04-29T10:32:23.749Z,451
2023-04-29T10:37:15.928Z,536
2023-04-29T10:39:42.029Z,620
2023-04-29T10:42:08.133Z,665
2023-04-29T10:44:34.211Z,643
2023-04-29T10:47:00.359Z,705
2023-04-29T10:49:26.398Z,699
2023-04-29T10:51:52.495Z,660
2023-04-29T10:54:17.618Z,609
2023-04-29T10:56:43.718Z,654
2023-04-29T10:59:09.805Z,660
2023-04-29T11:01:35.883Z,542
2023-04-29T11:04:01.993Z,519
2023-04-29T11:06:28.089Z,467
2023-04-29T11:08:54.190Z,473
2023-04-29T11:11:20.256Z,467
2023-04-29T11:13:46.367Z,768
2023-04-29T11:16:12.462Z,750
2023-04-29T11:18:38.559Z,671
2023-04-29T11:21:04.686Z,581
2023-04-29T11:23:30.775Z,620
2023-04-29T11:25:55.871Z,693
2023-04-29T11:28:21.964Z,716
2023-04-29T11:30:48.232Z,699
2023-04-29T11:33:14.201Z,688
2023-04-29T11:35:40.310Z,592
2023-04-29T11:38:06.337Z,581
2023-04-29T11:40:32.444Z,570
2023-04-29T11:42:58.529Z,615
2023-04-29T11:45:24.791Z,693
2023-04-29T11:47:50.727Z,824
2023-04-29T11:50:16.812Z,790
2023-04-29T11:52:42.913Z,688
2023-04-29T11:55:09.018Z,716
2023-04-29T11:57:34.138Z,750
2023-04-29T12:00:00.211Z,790
2023-04-29T12:02:26.299Z,796
2023-04-29T12:04:52.411Z,790
2023-04-29T12:07:18.499Z,796
2023-04-29T12:09:44.629Z,908
2023-04-29T12:12:10.679Z,501
2023-04-29T12:14:36.898Z,439
2023-04-29T12:17:02.862Z,841
2023-04-29T12:19:28.972Z,1033
2023-04-29T12:21:55.058Z,637
2023-04-29T12:24:21.144Z,677
2023-04-29T12:26:47.259Z,942
2023-04-29T12:29:12.366Z,755
2023-04-29T12:31:38.452Z,671
2023-04-29T12:34:04.556Z,570
2023-04-29T12:36:30.662Z,1050
2023-04-29T12:38:56.751Z,768
2023-04-29T12:41:22.839Z,1196
2023-04-29T12:43:48.951Z,953
2023-04-29T12:46:15.013Z,615
2023-04-29T12:48:41.122Z,824
2023-04-29T12:51:07.222Z,693
2023-04-29T12:53:33.308Z,841
2023-04-29T12:55:59.425Z,744
2023-04-29T12:58:25.508Z,1021
2023-04-29T13:00:50.607Z,699
2023-04-29T13:03:16.718Z,688
2023-04-29T13:05:42.830Z,942
2023-04-29T13:08:08.949Z,716
2023-04-29T13:10:34.994Z,886
2023-04-29T13:13:01.095Z,818
2023-04-29T13:15:27.202Z,710
2023-04-29T13:17:53.282Z,880
2023-04-29T13:20:19.380Z,688
2023-04-29T13:22:45.519Z,953
2023-04-29T13:25:11.584Z,942
2023-04-29T13:27:37.657Z,874
2023-04-29T13:30:03.775Z,1100
2023-04-29T13:32:28.864Z,3416
2023-04-29T13:34:55.116Z,4240
2023-04-29T13:37:21.113Z,4319
2023-04-29T13:39:47.170Z,3455
2023-04-29T13:42:13.278Z,581
2023-04-29T13:44:39.396Z,2439
2023-04-29T13:47:05.440Z,1219
2023-04-29T13:49:31.525Z,1067
2023-04-29T13:51:57.619Z,897
2023-04-29T13:54:23.751Z,858
2023-04-29T13:56:49.809Z,807
2023-04-29T13:59:15.970Z,1196
2023-04-29T14:01:42.024Z,637
2023-04-29T14:04:07.151Z,784
2023-04-29T14:06:33.236Z,513
2023-04-29T14:08:59.366Z,525
2023-04-29T14:11:25.419Z,846
2023-04-29T14:13:51.501Z,1140
2023-04-29T14:16:17.698Z,874
2023-04-29T14:18:56.060Z,1157
2023-04-29T14:21:09.895Z,761
2023-04-29T14:23:35.903Z,2642
2023-04-29T14:26:01.999Z,570
2023-04-29T14:28:28.342Z,665
2023-04-29T14:30:54.179Z,2760
2023-04-29T14:33:20.288Z,3100
2023-04-29T14:35:46.372Z,1168
2023-04-29T14:38:11.493Z,1518
2023-04-29T14:40:37.600Z,1913
2023-04-29T14:43:03.665Z,2913
2023-04-29T14:45:29.787Z,2743
2023-04-29T14:47:55.880Z,3263
2023-04-29T14:50:21.031Z,2410
2023-04-29T14:52:47.069Z,2461
2023-04-29T14:55:13.171Z,1518
2023-04-29T14:57:39.245Z,897
2023-04-29T15:00:05.336Z,874
2023-04-29T15:02:31.450Z,976
2023-04-29T15:04:57.541Z,2377
2023-04-29T15:07:23.699Z,1304
2023-04-29T15:09:49.753Z,2891
2023-04-29T15:12:15.846Z,1241
2023-04-29T15:14:41.990Z,914
2023-04-29T15:17:08.178Z,942
2023-04-29T15:19:34.280Z,682
2023-04-29T15:21:59.386Z,648
2023-04-29T15:24:25.490Z,1021
2023-04-29T15:26:51.601Z,891
2023-04-29T15:29:17.701Z,1067
2023-04-29T15:31:43.675Z,768
2023-04-29T15:34:09.753Z,796
2023-04-29T15:36:36.017Z,598
2023-04-29T15:39:02.052Z,654
2023-04-29T15:41:28.180Z,603
2023-04-29T15:43:54.280Z,507
2023-04-29T15:46:20.203Z,439
2023-04-29T15:48:46.287Z,383
2023-04-29T15:51:12.526Z,519
2023-04-29T15:53:37.657Z,479
2023-04-29T15:56:03.736Z,400
2023-04-29T15:58:30.228Z,321
2023-04-29T16:00:55.911Z,338
2023-04-29T16:03:22.048Z,321
2023-04-29T16:05:48.137Z,304
2023-04-29T16:08:14.103Z,293
2023-04-29T16:10:40.232Z,276
2023-04-29T16:13:06.251Z,259
2023-04-29T16:15:32.371Z,265
2023-04-29T16:17:58.459Z,271
2023-04-29T16:20:24.573Z,259
2023-04-29T16:22:50.643Z,265
2023-04-29T16:25:15.740Z,247
2023-04-29T16:27:41.831Z,225
2023-04-29T16:30:07.942Z,241
2023-04-29T16:32:34.014Z,271
2023-04-29T16:35:00.182Z,282
2023-04-29T16:37:26.222Z,293
2023-04-29T16:39:52.296Z,310
2023-04-29T16:42:18.441Z,310
2023-04-29T16:44:44.500Z,299
2023-04-29T16:47:10.589Z,271
2023-04-29T16:49:36.741Z,259
2023-04-29T16:52:02.911Z,259
2023-04-29T16:54:29.016Z,247
2023-04-29T16:56:54.000Z,208
2023-04-29T16:59:20.094Z,185
2023-04-29T17:01:46.219Z,168
2023-04-29T17:04:12.353Z,168
2023-04-29T17:06:38.380Z,174
2023-04-29T17:09:04.525Z,157
2023-04-29T17:11:30.730Z,146
2023-04-29T17:13:56.833Z,135
2023-04-29T17:16:22.827Z,135
2023-04-29T17:18:48.845Z,135
2023-04-29T17:21:14.977Z,123
2023-04-29T17:23:41.081Z,95
2023-04-29T17:26:07.119Z,95
2023-04-29T17:28:33.227Z,106
2023-04-29T17:30:58.376Z,95
2023-04-29T17:33:24.435Z,84
2023-04-29T17:35:50.531Z,73
2023-04-29T17:38:16.697Z,67
2023-04-29T17:40:42.789Z,61
2023-04-29T17:43:08.820Z,39
2023-04-29T17:45:34.927Z,33
2023-04-29T17:48:01.067Z,33
2023-04-29T17:50:27.494Z,33
2023-04-29T17:52:53.280Z,33
2023-04-29T17:55:19.293Z,33
2023-04-29T17:57:45.395Z,33
2023-04-29T18:00:11.571Z,28
2023-04-29T18:02:36.674Z,28
2023-04-29T18:05:02.790Z,22
2023-04-29T18:07:28.776Z,22
2023-04-29T18:09:54.877Z,16
2023-04-29T18:12:21.039Z,16
2023-04-29T18:14:47.077Z,16
2023-04-29T18:17:13.198Z,11
2023-04-29T18:19:39.378Z,11
2023-04-29T18:22:05.405Z,11
2023-04-29T18:24:31.467Z,11
2023-04-29T18:26:57.548Z,5
2023-04-29T18:29:23.638Z,5
2023-04-29T18:31:49.725Z,5
2023-04-29T18:34:15.879Z,5
2023-04-29T18:36:41.030Z,0
2023-04-29T18:39:07.048Z,0
2023-04-29T18:41:33.137Z,0
2023-04-29T18:43:59.281Z,0
2023-04-29T18:46:25.351Z,0
2023-04-29T18:48:51.530Z,0
2023-04-29T18:51:17.587Z,0
2023-04-29T18:53:43.606Z,0
2023-04-29T18:56:09.739Z,0
2023-04-29T18:58:35.788Z,0
2023-04-29T19:01:01.871Z,0
2023-04-29T19:03:27.985Z,0
2023-04-29T19:05:54.112Z,0
2023-04-29T19:08:19.272Z,0
2023-04-29T19:10:45.408Z,0
2023-04-29T19:13:11.409Z,0
2023-04-29T19:15:37.464Z,0
2023-04-29T19:18:03.605Z,0
2023-04-29T19:20:29.770Z,0
2023-04-29T19:22:55.839Z,0
2023-04-29T19:25:21.841Z,0
2023-04-29T19:27:48.007Z,0
2023-04-29T19:30:14.031Z,0
2023-04-29T19:32:40.210Z,0
2023-04-29T19:35:06.245Z,0
2023-04-29T19:37:32.375Z,0
2023-04-29T19:39:57.454Z,0
2023-04-29T19:42:23.527Z,0
2023-04-29T19:44:49.625Z,0
2023-04-29T19:47:15.746Z,0
2023-04-29T19:49:41.887Z,0
2023-04-29T19:52:08.074Z,0
2023-04-29T19:54:34.789Z,0
2023-04-29T19:57:00.109Z,0
2023-04-29T19:59:26.208Z,0
2023-04-29T20:01:52.275Z,0
2023-04-29T20:04:18.477Z,0
2023-04-29T20:06:44.498Z,0
2023-04-29T20:09:10.641Z,0
2023-04-29T20:11:35.746Z,0
2023-04-29T20:14:01.782Z,0
2023-04-29T20:16:28.120Z,0
2023-04-29T20:18:54.000Z,0
2023-04-29T20:21:20.076Z,0
2023-04-29T20:23:46.312Z,0
2023-04-29T20:26:12.580Z,0
2023-04-29T20:28:38.552Z,0
2023-04-29T20:31:04.576Z,0
2023-04-29T20:33:30.767Z,0
2023-04-29T20:35:56.757Z,0
2023-04-29T20:38:22.865Z,0
2023-04-29T20:40:48.983Z,0
2023-04-29T20:43:13.952Z,0
2023-04-29T20:45:40.263Z,0
2023-04-29T20:48:06.234Z,0
2023-04-29T20:50:32.270Z,0
2023-04-29T20:52:58.527Z,0
2023-04-29T20:55:24.643Z,0
2023-04-29T20:57:50.642Z,0
2023-04-29T21:00:16.806Z,0
2023-04-29T21:02:42.713Z,0
2023-04-29T21:05:08.964Z,0
2023-04-29T21:07:35.001Z,0
2023-04-29T21:10:01.017Z,0
2023-04-29T21:12:27.100Z,0
2023-04-29T21:14:52.225Z,0
2023-04-29T21:17:18.347Z,0
2023-04-29T21:19:44.394Z,0
2023-04-29T21:22:10.626Z,0
2023-04-29T21:24:36.723Z,0
2023-04-29T21:27:02.712Z,0
2023-04-29T21:29:28.838Z,0
2023-04-29T21:31:54.996Z,0
2023-04-29T21:34:21.014Z,0
2023-04-29T21:36:47.168Z,0
2023-04-29T21:39:13.277Z,0
2023-04-29T21:41:39.363Z,0
2023-04-29T21:44:05.450Z,0
2023-04-29T21:46:30.530Z,0
2023-04-29T21:48:56.708Z,0
2023-04-29T21:51:22.678Z,0
2023-04-29T21:53:48.755Z,0
2023-04-29T21:56:14.870Z,0
2023-04-29T21:58:41.100Z,0
2023-04-29T22:01:07.039Z,0
2023-04-29T22:03:33.145Z,0
2023-04-29T22:05:59.275Z,0
2023-04-29T22:08:25.389Z,0
2023-04-29T22:10:51.472Z,0
2023-04-29T22:13:17.514Z,0
2023-04-29T22:15:43.674Z,0
2023-04-29T22:18:08.752Z,0
2023-04-29T22:20:34.857Z,0
2023-04-29T22:23:00.987Z,0
2023-04-29T22:25:27.071Z,0
2023-04-29T22:27:53.152Z,0
2023-04-29T22:30:19.240Z,0
2023-04-29T22:32:45.305Z,0
2023-04-29T22:35:11.420Z,0
2023-04-29T22:37:37.508Z,0
2023-04-29T22:40:03.630Z,0
2023-04-29T22:42:29.694Z,0
2023-04-29T22:44:55.794Z,0
2023-04-29T22:47:22.024Z,0
2023-04-29T22:49:47.104Z,0
2023-04-29T22:52:13.143Z,0
2023-04-29T22:54:39.177Z,0
2023-04-29T22:57:05.288Z,0
2023-04-29T22:59:30.425Z,0
2023-04-29T23:01:56.480Z,0
2023-04-29T23:04:22.574Z,0
2023-04-29T23:06:48.685Z,0
2023-04-29T23:09:14.766Z,0
2023-04-29T23:11:40.944Z,0
2023-04-29T23:14:06.978Z,0
2023-04-29T23:16:33.059Z,0
2023-04-29T23:18:59.149Z,0
2023-04-29T23:21:25.307Z,0
2023-04-29T23:23:51.345Z,0
2023-04-29T23:26:17.442Z,0
2023-04-29T23:28:43.560Z,0
2023-04-29T23:31:08.650Z,0
2023-04-29T23:33:34.756Z,0
2023-04-29T23:36:00.849Z,0
2023-04-29T23:38:26.975Z,0
2023-04-29T23:40:53.015Z,0
2023-04-29T23:43:19.169Z,0
2023-04-29T23:45:45.283Z,0
2023-04-29T23:48:11.315Z,0
2023-04-29T23:50:37.477Z,0
2023-04-29T23:53:03.487Z,0
2023-04-29T23:55:29.596Z,0
2023-04-29T23:57:55.738Z,0
